CheckWX is a tool to help pilots better visualize weather data.  It is not intended as a substitute for an official pre-flight weather briefing.

13:50:31 UTC

DTTZ METAR
Tozeur Nefta International Airport
Tozeur, Tunisia
Current

51 mins ago

DTTZ 221300Z 10016KT 4000 SA SCT030 32/14 Q1011 NOSIG
Observed
Oct-22 @ 13:00 UTC
Wind
  • 100° at 16 KTS
Visibility
4,000 meters
Flight Rules
IFR
Conditions
Sand
Cloud Levels
  • Scattered at 3,000' AGL
Temperature
32°C / 90°F
Dewpoint
14°C / 57°F
Humidity
33%
Altimeter
29.85" Hg
Pressure
1010.92 hPa
Previous

2 hours ago

DTTZ 221200Z 09020KT 4000 SA SCT030 31/14 Q1012 NOSIG
Observed
Oct-22 @ 12:00 UTC
Wind
  • 090° at 20 KTS
Visibility
4,000 meters
Flight Rules
IFR
Conditions
Sand
Cloud Levels
  • Scattered at 3,000' AGL
Temperature
31°C / 88°F
Dewpoint
14°C / 57°F
Humidity
35%
Altimeter
29.88" Hg
Pressure
1011.92 hPa
Previous

3 hours ago

DTTZ 221100Z 10021KT 4000 SA FEW030 30/15 Q1012 NOSIG
Observed
Oct-22 @ 11:00 UTC
Wind
  • 100° at 21 KTS
Visibility
4,000 meters
Flight Rules
IFR
Conditions
Sand
Cloud Levels
  • Few at 3,000' AGL
Temperature
30°C / 86°F
Dewpoint
15°C / 59°F
Heat Index
29°C / 85°F
Humidity
40%
Altimeter
29.88" Hg
Pressure
1011.92 hPa